sensor_id;sensor_type;location;lat;lon;timestamp;temperature;humidity
11055;DHT22;5580;50.106;8.702;2023-02-28T00:00:25;1.70;99.90
11055;DHT22;5580;50.106;8.702;2023-02-28T00:02:51;1.70;99.90
11055;DHT22;5580;50.106;8.702;2023-02-28T00:05:20;1.70;99.90
11055;DHT22;5580;50.106;8.702;2023-02-28T00:07:46;1.70;99.90
11055;DHT22;5580;50.106;8.702;2023-02-28T00:10:15;1.70;99.90
11055;DHT22;5580;50.106;8.702;2023-02-28T00:12:41;1.60;99.90
11055;DHT22;5580;50.106;8.702;2023-02-28T00:15:09;1.60;99.90
11055;DHT22;5580;50.106;8.702;2023-02-28T00:17:35;1.60;99.90
11055;DHT22;5580;50.106;8.702;2023-02-28T00:20:02;1.60;99.90
11055;DHT22;5580;50.106;8.702;2023-02-28T00:22:30;1.60;99.90
11055;DHT22;5580;50.106;8.702;2023-02-28T00:24:56;1.60;99.90
11055;DHT22;5580;50.106;8.702;2023-02-28T00:27:21;1.50;99.90
11055;DHT22;5580;50.106;8.702;2023-02-28T00:29:47;1.50;99.90
11055;DHT22;5580;50.106;8.702;2023-02-28T00:32:13;1.40;99.90
11055;DHT22;5580;50.106;8.702;2023-02-28T00:34:38;1.40;99.90
11055;DHT22;5580;50.106;8.702;2023-02-28T00:37:06;1.40;99.90
11055;DHT22;5580;50.106;8.702;2023-02-28T00:39:34;1.40;99.90
11055;DHT22;5580;50.106;8.702;2023-02-28T00:42:00;1.40;99.90
11055;DHT22;5580;50.106;8.702;2023-02-28T00:44:25;1.40;99.90
11055;DHT22;5580;50.106;8.702;2023-02-28T00:46:51;1.40;99.90
11055;DHT22;5580;50.106;8.702;2023-02-28T00:49:19;1.30;99.90
11055;DHT22;5580;50.106;8.702;2023-02-28T00:51:45;1.30;99.90
11055;DHT22;5580;50.106;8.702;2023-02-28T00:54:11;1.30;99.90
11055;DHT22;5580;50.106;8.702;2023-02-28T00:56:37;1.30;99.90
11055;DHT22;5580;50.106;8.702;2023-02-28T00:59:02;1.30;99.90
11055;DHT22;5580;50.106;8.702;2023-02-28T01:01:28;1.30;99.90
11055;DHT22;5580;50.106;8.702;2023-02-28T01:03:53;1.20;99.90
11055;DHT22;5580;50.106;8.702;2023-02-28T01:06:19;1.20;99.90
11055;DHT22;5580;50.106;8.702;2023-02-28T01:08:45;1.20;99.90
11055;DHT22;5580;50.106;8.702;2023-02-28T01:11:12;1.20;99.90
11055;DHT22;5580;50.106;8.702;2023-02-28T01:13:38;1.20;99.90
11055;DHT22;5580;50.106;8.702;2023-02-28T01:16:04;1.10;99.90
11055;DHT22;5580;50.106;8.702;2023-02-28T01:18:30;1.10;99.90
11055;DHT22;5580;50.106;8.702;2023-02-28T01:20:56;1.10;99.90
11055;DHT22;5580;50.106;8.702;2023-02-28T01:23:22;1.10;99.90
11055;DHT22;5580;50.106;8.702;2023-02-28T01:25:52;1.00;99.90
11055;DHT22;5580;50.106;8.702;2023-02-28T01:28:17;1.00;99.90
11055;DHT22;5580;50.106;8.702;2023-02-28T01:30:47;0.90;99.90
11055;DHT22;5580;50.106;8.702;2023-02-28T01:33:13;0.90;99.90
11055;DHT22;5580;50.106;8.702;2023-02-28T01:35:39;0.90;99.90
11055;DHT22;5580;50.106;8.702;2023-02-28T01:38:04;0.90;99.90
11055;DHT22;5580;50.106;8.702;2023-02-28T01:40:30;0.90;99.90
11055;DHT22;5580;50.106;8.702;2023-02-28T01:42:56;0.80;99.90
11055;DHT22;5580;50.106;8.702;2023-02-28T01:45:30;0.80;99.90
11055;DHT22;5580;50.106;8.702;2023-02-28T01:48:03;0.80;99.90
11055;DHT22;5580;50.106;8.702;2023-02-28T01:50:34;0.80;99.90
11055;DHT22;5580;50.106;8.702;2023-02-28T01:53:07;0.80;99.90
11055;DHT22;5580;50.106;8.702;2023-02-28T01:55:35;0.80;99.90
11055;DHT22;5580;50.106;8.702;2023-02-28T01:58:04;0.80;99.90
11055;DHT22;5580;50.106;8.702;2023-02-28T02:00:32;0.80;99.90
11055;DHT22;5580;50.106;8.702;2023-02-28T02:03:00;0.80;99.90
11055;DHT22;5580;50.106;8.702;2023-02-28T02:05:30;0.70;99.90
11055;DHT22;5580;50.106;8.702;2023-02-28T02:08:05;0.70;99.90
11055;DHT22;5580;50.106;8.702;2023-02-28T02:10:42;0.70;99.90
11055;DHT22;5580;50.106;8.702;2023-02-28T02:13:34;0.70;99.90
11055;DHT22;5580;50.106;8.702;2023-02-28T02:22:02;0.70;99.90
11055;DHT22;5580;50.106;8.702;2023-02-28T02:30:08;0.70;99.90
11055;DHT22;5580;50.106;8.702;2023-02-28T02:36:06;0.70;99.90
11055;DHT22;5580;50.106;8.702;2023-02-28T02:41:39;0.70;99.90
11055;DHT22;5580;50.106;8.702;2023-02-28T02:44:28;0.70;99.90
11055;DHT22;5580;50.106;8.702;2023-02-28T02:47:02;0.60;99.90
11055;DHT22;5580;50.106;8.702;2023-02-28T02:49:32;0.50;99.90
11055;DHT22;5580;50.106;8.702;2023-02-28T02:52:04;0.50;99.90
11055;DHT22;5580;50.106;8.702;2023-02-28T02:54:35;0.50;99.90
11055;DHT22;5580;50.106;8.702;2023-02-28T02:57:24;0.50;99.90
11055;DHT22;5580;50.106;8.702;2023-02-28T02:59:52;0.50;99.90
11055;DHT22;5580;50.106;8.702;2023-02-28T03:02:20;0.40;99.90
11055;DHT22;5580;50.106;8.702;2023-02-28T03:04:56;0.40;99.90
11055;DHT22;5580;50.106;8.702;2023-02-28T03:07:26;0.40;99.90
11055;DHT22;5580;50.106;8.702;2023-02-28T03:09:53;0.30;99.90
11055;DHT22;5580;50.106;8.702;2023-02-28T03:12:20;0.30;99.90
11055;DHT22;5580;50.106;8.702;2023-02-28T03:18:25;0.30;99.90
11055;DHT22;5580;50.106;8.702;2023-02-28T03:21:14;0.30;99.90
11055;DHT22;5580;50.106;8.702;2023-02-28T03:24:02;0.30;99.90
11055;DHT22;5580;50.106;8.702;2023-02-28T03:26:31;0.30;99.90
11055;DHT22;5580;50.106;8.702;2023-02-28T03:29:08;0.30;99.90
11055;DHT22;5580;50.106;8.702;2023-02-28T03:31:54;0.30;99.90
11055;DHT22;5580;50.106;8.702;2023-02-28T03:34:32;0.30;99.90
11055;DHT22;5580;50.106;8.702;2023-02-28T03:37:11;0.20;99.90
11055;DHT22;5580;50.106;8.702;2023-02-28T03:39:46;0.20;99.90
11055;DHT22;5580;50.106;8.702;2023-02-28T03:42:18;0.20;99.90
11055;DHT22;5580;50.106;8.702;2023-02-28T03:44:51;0.20;99.90
11055;DHT22;5580;50.106;8.702;2023-02-28T03:47:27;0.20;99.90
11055;DHT22;5580;50.106;8.702;2023-02-28T03:52:23;0.30;99.90
11055;DHT22;5580;50.106;8.702;2023-02-28T03:54:53;0.30;99.90
11055;DHT22;5580;50.106;8.702;2023-02-28T03:57:27;0.20;99.90
11055;DHT22;5580;50.106;8.702;2023-02-28T04:00:00;0.20;99.90
11055;DHT22;5580;50.106;8.702;2023-02-28T04:02:29;0.20;99.90
11055;DHT22;5580;50.106;8.702;2023-02-28T04:04:55;0.10;99.90
11055;DHT22;5580;50.106;8.702;2023-02-28T04:07:21;0.10;99.90
11055;DHT22;5580;50.106;8.702;2023-02-28T04:09:46;0.10;99.90
11055;DHT22;5580;50.106;8.702;2023-02-28T04:12:12;0.10;99.90
11055;DHT22;5580;50.106;8.702;2023-02-28T04:14:37;0.00;99.90
11055;DHT22;5580;50.106;8.702;2023-02-28T04:17:03;0.00;99.90
11055;DHT22;5580;50.106;8.702;2023-02-28T04:19:28;0.00;99.90
11055;DHT22;5580;50.106;8.702;2023-02-28T04:21:54;0.00;99.90
11055;DHT22;5580;50.106;8.702;2023-02-28T04:24:23;-0.10;99.90
11055;DHT22;5580;50.106;8.702;2023-02-28T04:26:52;-0.10;99.90
11055;DHT22;5580;50.106;8.702;2023-02-28T04:29:20;0.00;99.90
11055;DHT22;5580;50.106;8.702;2023-02-28T04:31:46;0.00;99.90
11055;DHT22;5580;50.106;8.702;2023-02-28T04:34:11;0.00;99.90
11055;DHT22;5580;50.106;8.702;2023-02-28T04:36:37;0.10;99.90
11055;DHT22;5580;50.106;8.702;2023-02-28T04:39:02;0.10;99.90
11055;DHT22;5580;50.106;8.702;2023-02-28T04:41:29;0.00;99.90
11055;DHT22;5580;50.106;8.702;2023-02-28T04:43:55;0.00;99.90
11055;DHT22;5580;50.106;8.702;2023-02-28T04:46:21;0.00;99.90
11055;DHT22;5580;50.106;8.702;2023-02-28T04:48:47;0.00;99.90
11055;DHT22;5580;50.106;8.702;2023-02-28T04:51:15;0.00;99.90
11055;DHT22;5580;50.106;8.702;2023-02-28T04:53:42;0.00;99.90
11055;DHT22;5580;50.106;8.702;2023-02-28T04:56:11;0.10;99.90
11055;DHT22;5580;50.106;8.702;2023-02-28T04:58:37;0.10;99.90
11055;DHT22;5580;50.106;8.702;2023-02-28T05:01:13;0.10;99.90
11055;DHT22;5580;50.106;8.702;2023-02-28T05:03:41;0.10;99.90
11055;DHT22;5580;50.106;8.702;2023-02-28T05:06:08;0.00;99.90
11055;DHT22;5580;50.106;8.702;2023-02-28T05:08:34;0.10;99.90
11055;DHT22;5580;50.106;8.702;2023-02-28T05:11:00;0.10;99.90
11055;DHT22;5580;50.106;8.702;2023-02-28T05:13:29;0.10;99.90
11055;DHT22;5580;50.106;8.702;2023-02-28T05:15:55;0.10;99.90
11055;DHT22;5580;50.106;8.702;2023-02-28T05:18:21;0.00;99.90
11055;DHT22;5580;50.106;8.702;2023-02-28T05:20:47;0.00;99.90
11055;DHT22;5580;50.106;8.702;2023-02-28T05:23:13;0.00;99.90
11055;DHT22;5580;50.106;8.702;2023-02-28T05:25:40;0.00;99.90
11055;DHT22;5580;50.106;8.702;2023-02-28T05:28:06;0.00;99.90
11055;DHT22;5580;50.106;8.702;2023-02-28T05:30:32;0.00;99.90
11055;DHT22;5580;50.106;8.702;2023-02-28T05:32:57;0.00;99.90
11055;DHT22;5580;50.106;8.702;2023-02-28T05:35:24;-0.10;99.90
11055;DHT22;5580;50.106;8.702;2023-02-28T05:37:50;-0.10;99.90
11055;DHT22;5580;50.106;8.702;2023-02-28T05:40:16;-0.10;99.90
11055;DHT22;5580;50.106;8.702;2023-02-28T05:42:42;-0.20;99.90
11055;DHT22;5580;50.106;8.702;2023-02-28T05:45:08;-0.10;99.90
11055;DHT22;5580;50.106;8.702;2023-02-28T05:47:35;-0.10;99.90
11055;DHT22;5580;50.106;8.702;2023-02-28T05:50:01;-0.10;99.90
11055;DHT22;5580;50.106;8.702;2023-02-28T05:52:27;-0.10;99.90
11055;DHT22;5580;50.106;8.702;2023-02-28T05:54:53;-0.10;99.90
11055;DHT22;5580;50.106;8.702;2023-02-28T05:57:19;-0.10;99.90
11055;DHT22;5580;50.106;8.702;2023-02-28T05:59:44;-0.10;99.90
11055;DHT22;5580;50.106;8.702;2023-02-28T06:02:15;0.00;99.90
11055;DHT22;5580;50.106;8.702;2023-02-28T06:04:41;0.00;99.90
11055;DHT22;5580;50.106;8.702;2023-02-28T06:07:07;0.00;99.90
11055;DHT22;5580;50.106;8.702;2023-02-28T06:09:33;0.00;99.90
11055;DHT22;5580;50.106;8.702;2023-02-28T06:11:59;0.00;99.90
11055;DHT22;5580;50.106;8.702;2023-02-28T06:14:25;0.00;99.90
11055;DHT22;5580;50.106;8.702;2023-02-28T06:16:51;0.00;99.90
11055;DHT22;5580;50.106;8.702;2023-02-28T06:19:17;0.00;99.90
11055;DHT22;5580;50.106;8.702;2023-02-28T06:21:43;0.00;99.90
11055;DHT22;5580;50.106;8.702;2023-02-28T06:24:09;0.00;99.90
11055;DHT22;5580;50.106;8.702;2023-02-28T06:26:35;0.00;99.90
11055;DHT22;5580;50.106;8.702;2023-02-28T06:29:00;0.00;99.90
11055;DHT22;5580;50.106;8.702;2023-02-28T06:31:26;0.00;99.90
11055;DHT22;5580;50.106;8.702;2023-02-28T06:33:54;0.00;99.90
11055;DHT22;5580;50.106;8.702;2023-02-28T06:36:20;-0.10;99.90
11055;DHT22;5580;50.106;8.702;2023-02-28T06:38:46;-0.10;99.90
11055;DHT22;5580;50.106;8.702;2023-02-28T06:41:16;-0.10;99.90
11055;DHT22;5580;50.106;8.702;2023-02-28T06:43:42;0.00;99.90
11055;DHT22;5580;50.106;8.702;2023-02-28T06:46:11;-0.10;99.90
11055;DHT22;5580;50.106;8.702;2023-02-28T06:48:38;0.00;99.90
11055;DHT22;5580;50.106;8.702;2023-02-28T06:51:09;0.00;99.90
11055;DHT22;5580;50.106;8.702;2023-02-28T06:53:35;0.10;99.90
11055;DHT22;5580;50.106;8.702;2023-02-28T06:56:07;0.00;99.90
11055;DHT22;5580;50.106;8.702;2023-02-28T06:58:33;0.00;99.90
11055;DHT22;5580;50.106;8.702;2023-02-28T07:00:58;0.10;99.90
11055;DHT22;5580;50.106;8.702;2023-02-28T07:03:24;0.10;99.90
11055;DHT22;5580;50.106;8.702;2023-02-28T07:05:50;0.10;99.90
11055;DHT22;5580;50.106;8.702;2023-02-28T07:08:16;0.10;99.90
11055;DHT22;5580;50.106;8.702;2023-02-28T07:10:41;0.20;99.90
11055;DHT22;5580;50.106;8.702;2023-02-28T07:13:08;0.20;99.90
11055;DHT22;5580;50.106;8.702;2023-02-28T07:15:35;0.20;99.90
11055;DHT22;5580;50.106;8.702;2023-02-28T07:18:00;0.30;99.90
11055;DHT22;5580;50.106;8.702;2023-02-28T07:20:26;0.30;99.90
11055;DHT22;5580;50.106;8.702;2023-02-28T07:22:51;0.40;99.90
11055;DHT22;5580;50.106;8.702;2023-02-28T07:25:27;0.40;99.90
11055;DHT22;5580;50.106;8.702;2023-02-28T07:27:54;0.40;99.90
11055;DHT22;5580;50.106;8.702;2023-02-28T07:30:20;0.40;99.90
11055;DHT22;5580;50.106;8.702;2023-02-28T07:32:45;0.40;99.90
11055;DHT22;5580;50.106;8.702;2023-02-28T07:35:11;0.50;99.90
11055;DHT22;5580;50.106;8.702;2023-02-28T07:37:37;0.50;99.90
11055;DHT22;5580;50.106;8.702;2023-02-28T07:40:08;0.50;99.90
11055;DHT22;5580;50.106;8.702;2023-02-28T07:42:37;0.60;99.90
11055;DHT22;5580;50.106;8.702;2023-02-28T07:45:05;0.60;99.90
11055;DHT22;5580;50.106;8.702;2023-02-28T07:47:31;0.60;99.90
11055;DHT22;5580;50.106;8.702;2023-02-28T07:49:57;0.60;99.90
11055;DHT22;5580;50.106;8.702;2023-02-28T07:52:23;0.70;99.90
11055;DHT22;5580;50.106;8.702;2023-02-28T07:54:50;0.80;99.90
11055;DHT22;5580;50.106;8.702;2023-02-28T07:57:15;0.80;99.90
11055;DHT22;5580;50.106;8.702;2023-02-28T07:59:41;0.80;99.90
11055;DHT22;5580;50.106;8.702;2023-02-28T08:02:08;0.90;99.90
11055;DHT22;5580;50.106;8.702;2023-02-28T08:04:35;0.90;99.90
11055;DHT22;5580;50.106;8.702;2023-02-28T08:07:00;0.90;99.90
11055;DHT22;5580;50.106;8.702;2023-02-28T08:09:26;1.00;99.90
11055;DHT22;5580;50.106;8.702;2023-02-28T08:11:51;1.00;99.90
11055;DHT22;5580;50.106;8.702;2023-02-28T08:14:17;1.10;99.90
11055;DHT22;5580;50.106;8.702;2023-02-28T08:16:43;1.20;99.90
11055;DHT22;5580;50.106;8.702;2023-02-28T08:19:08;1.20;99.90
11055;DHT22;5580;50.106;8.702;2023-02-28T08:21:34;1.20;99.90
11055;DHT22;5580;50.106;8.702;2023-02-28T08:24:00;1.30;99.90
11055;DHT22;5580;50.106;8.702;2023-02-28T08:26:26;1.40;99.90
11055;DHT22;5580;50.106;8.702;2023-02-28T08:28:51;1.40;99.90
11055;DHT22;5580;50.106;8.702;2023-02-28T08:31:17;1.40;99.90
11055;DHT22;5580;50.106;8.702;2023-02-28T08:33:44;1.50;99.90
11055;DHT22;5580;50.106;8.702;2023-02-28T08:36:11;1.50;99.90
11055;DHT22;5580;50.106;8.702;2023-02-28T08:38:37;1.60;99.90
11055;DHT22;5580;50.106;8.702;2023-02-28T08:41:05;1.70;99.90
11055;DHT22;5580;50.106;8.702;2023-02-28T08:43:33;1.60;99.90
11055;DHT22;5580;50.106;8.702;2023-02-28T08:45:59;1.60;99.90
11055;DHT22;5580;50.106;8.702;2023-02-28T08:48:26;1.60;99.90
11055;DHT22;5580;50.106;8.702;2023-02-28T08:51:04;1.60;99.90
11055;DHT22;5580;50.106;8.702;2023-02-28T08:53:30;1.60;99.90
11055;DHT22;5580;50.106;8.702;2023-02-28T08:56:07;1.60;99.90
11055;DHT22;5580;50.106;8.702;2023-02-28T08:58:34;1.80;99.90
11055;DHT22;5580;50.106;8.702;2023-02-28T09:01:00;1.80;99.90
11055;DHT22;5580;50.106;8.702;2023-02-28T09:03:26;1.80;99.90
11055;DHT22;5580;50.106;8.702;2023-02-28T09:05:55;1.80;99.90
11055;DHT22;5580;50.106;8.702;2023-02-28T09:08:22;1.80;99.90
11055;DHT22;5580;50.106;8.702;2023-02-28T09:10:48;1.80;99.90
11055;DHT22;5580;50.106;8.702;2023-02-28T09:13:13;1.90;99.90
11055;DHT22;5580;50.106;8.702;2023-02-28T09:15:39;1.90;99.90
11055;DHT22;5580;50.106;8.702;2023-02-28T09:18:05;2.00;99.90
11055;DHT22;5580;50.106;8.702;2023-02-28T09:20:30;2.10;99.90
11055;DHT22;5580;50.106;8.702;2023-02-28T09:22:56;2.10;99.90
11055;DHT22;5580;50.106;8.702;2023-02-28T09:25:21;2.20;99.90
11055;DHT22;5580;50.106;8.702;2023-02-28T09:27:47;2.30;99.90
11055;DHT22;5580;50.106;8.702;2023-02-28T09:30:14;2.40;99.90
11055;DHT22;5580;50.106;8.702;2023-02-28T09:32:40;2.60;99.90
11055;DHT22;5580;50.106;8.702;2023-02-28T09:35:06;2.60;99.90
11055;DHT22;5580;50.106;8.702;2023-02-28T09:37:31;2.70;99.90
11055;DHT22;5580;50.106;8.702;2023-02-28T09:39:57;2.70;99.90
11055;DHT22;5580;50.106;8.702;2023-02-28T09:42:32;2.80;99.90
11055;DHT22;5580;50.106;8.702;2023-02-28T09:45:00;2.90;99.90
11055;DHT22;5580;50.106;8.702;2023-02-28T09:47:34;2.90;99.90
11055;DHT22;5580;50.106;8.702;2023-02-28T09:52:51;2.90;99.90
11055;DHT22;5580;50.106;8.702;2023-02-28T09:57:58;2.80;99.90
11055;DHT22;5580;50.106;8.702;2023-02-28T10:00:33;2.80;99.90
11055;DHT22;5580;50.106;8.702;2023-02-28T10:03:25;2.80;99.90
11055;DHT22;5580;50.106;8.702;2023-02-28T10:06:19;2.80;99.90
11055;DHT22;5580;50.106;8.702;2023-02-28T10:09:03;2.90;99.90
11055;DHT22;5580;50.106;8.702;2023-02-28T10:11:33;2.80;99.90
11055;DHT22;5580;50.106;8.702;2023-02-28T10:16:56;2.80;99.90
11055;DHT22;5580;50.106;8.702;2023-02-28T10:19:46;2.90;99.90
11055;DHT22;5580;50.106;8.702;2023-02-28T10:24:56;2.80;99.90
11055;DHT22;5580;50.106;8.702;2023-02-28T10:27:33;2.80;99.90
11055;DHT22;5580;50.106;8.702;2023-02-28T10:30:00;2.80;99.90
11055;DHT22;5580;50.106;8.702;2023-02-28T10:32:31;2.80;99.90
11055;DHT22;5580;50.106;8.702;2023-02-28T10:35:25;2.90;99.90
11055;DHT22;5580;50.106;8.702;2023-02-28T10:37:55;2.90;99.90
11055;DHT22;5580;50.106;8.702;2023-02-28T10:42:57;3.00;99.90
11055;DHT22;5580;50.106;8.702;2023-02-28T10:45:24;3.10;99.90
11055;DHT22;5580;50.106;8.702;2023-02-28T10:47:56;3.10;99.90
11055;DHT22;5580;50.106;8.702;2023-02-28T10:55:58;3.20;99.90
11055;DHT22;5580;50.106;8.702;2023-02-28T10:58:26;3.30;99.90
11055;DHT22;5580;50.106;8.702;2023-02-28T11:00:52;3.30;99.90
11055;DHT22;5580;50.106;8.702;2023-02-28T11:03:32;3.40;99.90
11055;DHT22;5580;50.106;8.702;2023-02-28T11:06:03;3.40;99.90
11055;DHT22;5580;50.106;8.702;2023-02-28T11:08:30;3.40;99.90
11055;DHT22;5580;50.106;8.702;2023-02-28T11:11:04;3.50;99.90
11055;DHT22;5580;50.106;8.702;2023-02-28T11:13:35;3.40;99.90
11055;DHT22;5580;50.106;8.702;2023-02-28T11:16:07;3.50;99.90
11055;DHT22;5580;50.106;8.702;2023-02-28T11:18:52;3.50;99.90
11055;DHT22;5580;50.106;8.702;2023-02-28T11:21:23;3.60;99.90
11055;DHT22;5580;50.106;8.702;2023-02-28T11:23:52;3.60;99.90
11055;DHT22;5580;50.106;8.702;2023-02-28T11:26:42;3.60;99.90
11055;DHT22;5580;50.106;8.702;2023-02-28T11:29:28;3.70;99.90
11055;DHT22;5580;50.106;8.702;2023-02-28T11:32:04;3.80;99.90
11055;DHT22;5580;50.106;8.702;2023-02-28T11:34:31;3.90;99.90
11055;DHT22;5580;50.106;8.702;2023-02-28T11:36:58;3.90;99.90
11055;DHT22;5580;50.106;8.702;2023-02-28T11:39:25;3.90;99.90
11055;DHT22;5580;50.106;8.702;2023-02-28T11:47:22;3.80;99.90
11055;DHT22;5580;50.106;8.702;2023-02-28T12:12:19;3.90;99.90
11055;DHT22;5580;50.106;8.702;2023-02-28T12:18:10;3.90;99.10
11055;DHT22;5580;50.106;8.702;2023-02-28T12:28:21;3.80;99.60
11055;DHT22;5580;50.106;8.702;2023-02-28T12:31:09;3.80;98.90
11055;DHT22;5580;50.106;8.702;2023-02-28T12:33:42;3.80;99.50
11055;DHT22;5580;50.106;8.702;2023-02-28T12:36:15;3.90;98.90
11055;DHT22;5580;50.106;8.702;2023-02-28T12:38:58;3.90;99.00
11055;DHT22;5580;50.106;8.702;2023-02-28T12:42:01;3.90;98.50
11055;DHT22;5580;50.106;8.702;2023-02-28T12:45:04;3.90;99.10
11055;DHT22;5580;50.106;8.702;2023-02-28T12:47:21;4.00;99.40
11055;DHT22;5580;50.106;8.702;2023-02-28T12:49:54;4.20;99.00
11055;DHT22;5580;50.106;8.702;2023-02-28T13:11:29;4.30;98.10
11055;DHT22;5580;50.106;8.702;2023-02-28T13:14:02;4.30;98.60
11055;DHT22;5580;50.106;8.702;2023-02-28T13:16:46;4.40;98.90
11055;DHT22;5580;50.106;8.702;2023-02-28T13:19:17;4.40;99.90
11055;DHT22;5580;50.106;8.702;2023-02-28T13:21:44;4.40;98.90
11055;DHT22;5580;50.106;8.702;2023-02-28T13:24:11;4.40;98.50
11055;DHT22;5580;50.106;8.702;2023-02-28T13:34:36;4.40;99.20
11055;DHT22;5580;50.106;8.702;2023-02-28T13:47:42;4.50;98.70
11055;DHT22;5580;50.106;8.702;2023-02-28T13:50:29;4.50;98.70
11055;DHT22;5580;50.106;8.702;2023-02-28T14:01:50;4.60;98.70
11055;DHT22;5580;50.106;8.702;2023-02-28T14:04:48;4.60;98.50
11055;DHT22;5580;50.106;8.702;2023-02-28T14:07:26;4.60;98.30
11055;DHT22;5580;50.106;8.702;2023-02-28T14:10:08;4.60;98.30
11055;DHT22;5580;50.106;8.702;2023-02-28T14:15:27;4.60;98.90
11055;DHT22;5580;50.106;8.702;2023-02-28T14:17:55;4.60;98.80
11055;DHT22;5580;50.106;8.702;2023-02-28T14:20:22;4.60;98.50
11055;DHT22;5580;50.106;8.702;2023-02-28T14:25:45;4.70;98.90
11055;DHT22;5580;50.106;8.702;2023-02-28T14:31:09;4.70;99.10
11055;DHT22;5580;50.106;8.702;2023-02-28T14:36:38;4.80;99.20
11055;DHT22;5580;50.106;8.702;2023-02-28T14:39:16;4.70;98.30
11055;DHT22;5580;50.106;8.702;2023-02-28T14:41:43;4.80;98.70
11055;DHT22;5580;50.106;8.702;2023-02-28T14:46:45;4.80;99.00
11055;DHT22;5580;50.106;8.702;2023-02-28T14:49:32;4.80;99.10
11055;DHT22;5580;50.106;8.702;2023-02-28T14:54:28;4.90;99.50
11055;DHT22;5580;50.106;8.702;2023-02-28T14:56:54;4.80;98.80
11055;DHT22;5580;50.106;8.702;2023-02-28T14:59:38;4.80;98.70
11055;DHT22;5580;50.106;8.702;2023-02-28T15:02:21;4.80;98.90
11055;DHT22;5580;50.106;8.702;2023-02-28T15:04:59;4.80;99.00
11055;DHT22;5580;50.106;8.702;2023-02-28T15:07:25;4.80;99.00
11055;DHT22;5580;50.106;8.702;2023-02-28T15:10:17;4.80;99.30
11055;DHT22;5580;50.106;8.702;2023-02-28T15:13:05;4.90;98.80
11055;DHT22;5580;50.106;8.702;2023-02-28T15:15:40;4.80;99.00
11055;DHT22;5580;50.106;8.702;2023-02-28T15:18:12;4.80;99.60
11055;DHT22;5580;50.106;8.702;2023-02-28T15:20:42;4.90;99.90
11055;DHT22;5580;50.106;8.702;2023-02-28T15:23:10;4.90;99.00
11055;DHT22;5580;50.106;8.702;2023-02-28T15:25:36;4.90;99.10
11055;DHT22;5580;50.106;8.702;2023-02-28T15:28:02;4.90;99.10
11055;DHT22;5580;50.106;8.702;2023-02-28T15:30:29;4.90;99.30
11055;DHT22;5580;50.106;8.702;2023-02-28T15:35:37;4.90;99.50
11055;DHT22;5580;50.106;8.702;2023-02-28T15:38:25;4.90;99.40
11055;DHT22;5580;50.106;8.702;2023-02-28T15:40:56;4.90;99.10
11055;DHT22;5580;50.106;8.702;2023-02-28T15:45:59;4.80;99.00
11055;DHT22;5580;50.106;8.702;2023-02-28T15:48:54;4.70;98.90
11055;DHT22;5580;50.106;8.702;2023-02-28T15:51:24;4.70;99.20
11055;DHT22;5580;50.106;8.702;2023-02-28T15:53:59;4.70;99.30
11055;DHT22;5580;50.106;8.702;2023-02-28T15:56:31;4.70;99.70
11055;DHT22;5580;50.106;8.702;2023-02-28T15:59:08;4.70;99.60
11055;DHT22;5580;50.106;8.702;2023-02-28T16:01:39;4.70;99.80
11055;DHT22;5580;50.106;8.702;2023-02-28T16:04:25;4.70;99.90
11055;DHT22;5580;50.106;8.702;2023-02-28T16:09:23;4.70;99.90
11055;DHT22;5580;50.106;8.702;2023-02-28T16:11:51;4.70;99.90
11055;DHT22;5580;50.106;8.702;2023-02-28T16:14:23;4.70;99.60
11055;DHT22;5580;50.106;8.702;2023-02-28T16:16:54;4.70;99.90
11055;DHT22;5580;50.106;8.702;2023-02-28T16:19:21;4.70;99.90
11055;DHT22;5580;50.106;8.702;2023-02-28T16:21:47;4.70;99.90
11055;DHT22;5580;50.106;8.702;2023-02-28T16:24:13;4.70;99.90
11055;DHT22;5580;50.106;8.702;2023-02-28T16:26:40;4.60;99.90
11055;DHT22;5580;50.106;8.702;2023-02-28T16:29:08;4.60;99.90
11055;DHT22;5580;50.106;8.702;2023-02-28T16:31:37;4.60;99.90
11055;DHT22;5580;50.106;8.702;2023-02-28T16:34:04;4.50;99.90
11055;DHT22;5580;50.106;8.702;2023-02-28T16:36:30;4.60;99.90
11055;DHT22;5580;50.106;8.702;2023-02-28T16:38:55;4.50;99.90
11055;DHT22;5580;50.106;8.702;2023-02-28T16:41:26;4.60;99.90
11055;DHT22;5580;50.106;8.702;2023-02-28T16:43:54;4.60;99.90
11055;DHT22;5580;50.106;8.702;2023-02-28T16:46:24;4.50;99.90
11055;DHT22;5580;50.106;8.702;2023-02-28T16:48:50;4.50;99.90
11055;DHT22;5580;50.106;8.702;2023-02-28T16:51:17;4.50;99.90
11055;DHT22;5580;50.106;8.702;2023-02-28T16:53:43;4.50;99.90
11055;DHT22;5580;50.106;8.702;2023-02-28T16:56:21;4.50;99.90
11055;DHT22;5580;50.106;8.702;2023-02-28T16:58:48;4.40;99.90
11055;DHT22;5580;50.106;8.702;2023-02-28T17:01:14;4.40;99.90
11055;DHT22;5580;50.106;8.702;2023-02-28T17:03:40;4.40;99.90
11055;DHT22;5580;50.106;8.702;2023-02-28T17:06:15;4.40;99.90
11055;DHT22;5580;50.106;8.702;2023-02-28T17:08:41;4.40;99.90
11055;DHT22;5580;50.106;8.702;2023-02-28T17:11:08;4.40;99.90
11055;DHT22;5580;50.106;8.702;2023-02-28T17:13:34;4.30;99.90
11055;DHT22;5580;50.106;8.702;2023-02-28T17:16:00;4.30;99.90
11055;DHT22;5580;50.106;8.702;2023-02-28T17:18:26;4.30;99.90
11055;DHT22;5580;50.106;8.702;2023-02-28T17:20:54;4.30;99.90
11055;DHT22;5580;50.106;8.702;2023-02-28T17:23:19;4.30;99.90
11055;DHT22;5580;50.106;8.702;2023-02-28T17:25:45;4.20;99.90
11055;DHT22;5580;50.106;8.702;2023-02-28T17:28:19;4.20;99.90
11055;DHT22;5580;50.106;8.702;2023-02-28T17:30:45;4.20;99.90
11055;DHT22;5580;50.106;8.702;2023-02-28T17:33:12;4.20;99.90
11055;DHT22;5580;50.106;8.702;2023-02-28T17:35:38;4.10;99.90
11055;DHT22;5580;50.106;8.702;2023-02-28T17:38:03;4.10;99.90
11055;DHT22;5580;50.106;8.702;2023-02-28T17:40:29;4.10;99.90
11055;DHT22;5580;50.106;8.702;2023-02-28T17:42:55;4.10;99.90
11055;DHT22;5580;50.106;8.702;2023-02-28T17:45:22;4.10;99.90
11055;DHT22;5580;50.106;8.702;2023-02-28T17:47:49;4.10;99.90
11055;DHT22;5580;50.106;8.702;2023-02-28T17:50:20;4.00;99.90
11055;DHT22;5580;50.106;8.702;2023-02-28T17:52:46;4.00;99.90
11055;DHT22;5580;50.106;8.702;2023-02-28T17:55:12;3.90;99.90
11055;DHT22;5580;50.106;8.702;2023-02-28T17:57:37;3.90;99.90
11055;DHT22;5580;50.106;8.702;2023-02-28T18:00:04;3.90;99.90
11055;DHT22;5580;50.106;8.702;2023-02-28T18:02:32;3.80;99.90
11055;DHT22;5580;50.106;8.702;2023-02-28T18:04:57;3.80;99.90
11055;DHT22;5580;50.106;8.702;2023-02-28T18:07:24;3.80;99.90
11055;DHT22;5580;50.106;8.702;2023-02-28T18:09:50;3.80;99.90
11055;DHT22;5580;50.106;8.702;2023-02-28T18:12:15;3.80;99.90
11055;DHT22;5580;50.106;8.702;2023-02-28T18:14:41;3.80;99.90
11055;DHT22;5580;50.106;8.702;2023-02-28T18:17:09;3.80;99.90
11055;DHT22;5580;50.106;8.702;2023-02-28T18:19:37;3.80;99.90
11055;DHT22;5580;50.106;8.702;2023-02-28T18:22:03;3.80;99.90
11055;DHT22;5580;50.106;8.702;2023-02-28T18:24:31;3.80;99.90
11055;DHT22;5580;50.106;8.702;2023-02-28T18:26:58;3.90;99.90
11055;DHT22;5580;50.106;8.702;2023-02-28T18:29:25;4.00;99.90
11055;DHT22;5580;50.106;8.702;2023-02-28T18:31:53;4.00;99.90
11055;DHT22;5580;50.106;8.702;2023-02-28T18:34:19;3.90;99.90
11055;DHT22;5580;50.106;8.702;2023-02-28T18:36:45;3.80;99.90
11055;DHT22;5580;50.106;8.702;2023-02-28T18:39:13;3.80;99.90
11055;DHT22;5580;50.106;8.702;2023-02-28T18:41:39;3.80;99.90
11055;DHT22;5580;50.106;8.702;2023-02-28T18:44:05;3.70;99.90
11055;DHT22;5580;50.106;8.702;2023-02-28T18:46:30;3.60;99.90
11055;DHT22;5580;50.106;8.702;2023-02-28T18:48:56;3.60;99.90